createdAt,value
2019-05-13T00:02:17.048Z,69.10
2019-05-13T00:04:44.386Z,69.60
2019-05-13T00:07:13.464Z,70.20
2019-05-13T00:09:41.133Z,68.30
2019-05-13T00:12:09.294Z,68.10
2019-05-13T00:14:36.809Z,68.80
2019-05-13T00:17:04.505Z,68.50
2019-05-13T00:19:33.878Z,67.40
2019-05-13T00:22:03.758Z,68.00
2019-05-13T00:24:30.970Z,68.70
2019-05-13T00:26:58.389Z,68.10
2019-05-13T00:29:27.322Z,67.50
2019-05-13T00:31:54.792Z,67.40
2019-05-13T00:34:24.201Z,67.40
2019-05-13T00:37:07.276Z,68.20
2019-05-13T00:39:21.693Z,66.90
2019-05-13T00:41:49.468Z,68.30
2019-05-13T00:44:16.938Z,66.20
2019-05-13T00:46:44.568Z,67.00
2019-05-13T00:49:13.410Z,67.30
2019-05-13T00:51:44.241Z,68.10
2019-05-13T00:54:13.339Z,67.90
2019-05-13T00:56:43.432Z,67.90
2019-05-13T00:59:10.593Z,67.90
2019-05-13T01:01:38.762Z,68.60
2019-05-13T01:04:06.277Z,68.90
2019-05-13T01:06:34.206Z,69.00
2019-05-13T01:09:04.025Z,68.50
2019-05-13T01:11:31.377Z,69.00
2019-05-13T01:13:59.394Z,69.10
2019-05-13T01:16:26.752Z,68.60
2019-05-13T01:18:54.215Z,68.20
2019-05-13T01:21:23.922Z,68.20
2019-05-13T01:23:54.211Z,67.80
2019-05-13T01:26:23.180Z,68.10
2019-05-13T01:28:50.906Z,68.70
2019-05-13T01:31:18.240Z,69.10
2019-05-13T01:33:46.191Z,69.60
2019-05-13T01:36:13.922Z,69.80
2019-05-13T01:38:43.561Z,70.50
2019-05-13T01:41:10.854Z,68.80
2019-05-13T01:43:38.315Z,69.60
2019-05-13T01:46:05.645Z,70.00
2019-05-13T01:48:33.372Z,69.60
2019-05-13T01:51:03.761Z,69.20
2019-05-13T01:53:33.438Z,69.20
2019-05-13T01:56:00.649Z,68.20
2019-05-13T01:58:28.049Z,67.40
2019-05-13T02:00:55.707Z,67.50
2019-05-13T02:03:24.634Z,67.50
2019-05-13T02:05:54.400Z,67.90
2019-05-13T02:08:24.360Z,68.00
2019-05-13T02:10:56.108Z,68.10
2019-05-13T02:13:24.734Z,69.10
2019-05-13T02:15:54.999Z,69.60
2019-05-13T02:18:24.392Z,69.60
2019-05-13T02:20:54.876Z,69.70
2019-05-13T02:23:23.867Z,69.00
2019-05-13T02:25:53.832Z,68.80
2019-05-13T02:28:20.782Z,68.70
2019-05-13T02:30:48.768Z,69.00
2019-05-13T02:33:16.522Z,69.50
2019-05-13T02:35:44.208Z,70.50
2019-05-13T02:38:23.544Z,70.90
2019-05-13T02:40:43.175Z,70.30
2019-05-13T02:43:13.273Z,69.70
2019-05-13T02:45:42.662Z,69.40
2019-05-13T02:48:12.489Z,69.10
2019-05-13T02:50:38.600Z,69.10
2019-05-13T02:53:06.443Z,69.30
2019-05-13T02:55:34.812Z,69.30
2019-05-13T02:58:03.270Z,69.50
2019-05-13T03:00:32.846Z,69.20
2019-05-13T03:03:03.180Z,69.20
2019-05-13T03:05:32.074Z,69.40
2019-05-13T03:08:03.037Z,69.50
2019-05-13T03:10:29.082Z,69.50
2019-05-13T03:12:56.964Z,70.00
2019-05-13T03:15:26.454Z,70.20
2019-05-13T03:18:04.569Z,70.50
2019-05-13T03:20:33.284Z,70.70
2019-05-13T03:23:03.102Z,70.80
2019-05-13T03:25:33.085Z,71.00
2019-05-13T03:28:03.215Z,71.30
2019-05-13T03:30:35.158Z,71.60
2019-05-13T03:33:09.731Z,71.70
2019-05-13T03:35:36.038Z,72.50
2019-05-13T03:38:03.387Z,72.60
2019-05-13T03:40:32.995Z,73.20
2019-05-13T03:43:02.749Z,73.20
2019-05-13T03:45:32.880Z,73.20
2019-05-13T03:48:03.924Z,72.20
2019-05-13T03:50:34.150Z,72.00
2019-05-13T03:53:03.095Z,72.20
2019-05-13T03:55:32.594Z,72.00
2019-05-13T03:58:02.989Z,71.70
2019-05-13T04:00:32.061Z,72.30
2019-05-13T04:02:59.092Z,71.80
2019-05-13T04:05:26.559Z,72.10
2019-05-13T04:07:54.412Z,72.50
2019-05-13T04:10:22.911Z,72.80
2019-05-13T04:12:52.703Z,72.60
2019-05-13T04:15:23.395Z,73.00
2019-05-13T04:17:53.116Z,73.00
2019-05-13T04:20:22.772Z,73.40
2019-05-13T04:22:52.693Z,73.60
2019-05-13T04:25:18.818Z,73.80
2019-05-13T04:27:46.288Z,74.40
2019-05-13T04:30:14.141Z,74.50
2019-05-13T04:32:44.262Z,74.50
2019-05-13T04:35:12.616Z,74.50
2019-05-13T04:37:43.010Z,74.90
2019-05-13T04:40:12.685Z,75.10
2019-05-13T04:42:42.658Z,75.30
2019-05-13T04:45:13.013Z,75.10
2019-05-13T04:47:39.418Z,75.30
2019-05-13T04:50:07.014Z,75.40
2019-05-13T04:52:34.863Z,75.60
2019-05-13T04:55:03.652Z,75.70
2019-05-13T04:57:33.188Z,76.10
2019-05-13T05:00:04.030Z,76.40
2019-05-13T05:02:55.139Z,76.20
2019-05-13T05:05:45.812Z,76.20
2019-05-13T05:09:12.549Z,75.80
2019-05-13T05:12:12.441Z,76.60
2019-05-13T05:15:07.798Z,76.20
2019-05-13T05:18:22.310Z,76.10
2019-05-13T05:21:01.571Z,76.20
2019-05-13T05:23:51.858Z,76.20
2019-05-13T05:27:01.454Z,76.70
2019-05-13T05:30:07.830Z,76.40
2019-05-13T05:33:02.060Z,76.90
2019-05-13T05:35:47.217Z,77.00
2019-05-13T05:39:04.387Z,77.20
2019-05-13T05:41:34.346Z,77.00
2019-05-13T05:44:02.394Z,77.40
2019-05-13T05:46:32.401Z,77.90
2019-05-13T05:49:05.318Z,78.30
2019-05-13T05:51:32.980Z,79.20
2019-05-13T05:54:02.554Z,77.80
2019-05-13T05:56:32.510Z,78.60
2019-05-13T05:59:03.002Z,78.20
2019-05-13T06:01:32.787Z,77.80
2019-05-13T06:04:01.602Z,78.30
2019-05-13T06:06:33.011Z,78.60
2019-05-13T06:09:01.746Z,77.40
2019-05-13T06:11:31.744Z,77.60
2019-05-13T06:14:02.126Z,78.30
2019-05-13T06:16:28.949Z,79.60
2019-05-13T06:18:56.704Z,78.10
2019-05-13T06:21:24.243Z,76.80
2019-05-13T06:23:51.941Z,76.40
2019-05-13T06:26:23.563Z,76.70
2019-05-13T06:28:52.068Z,76.80
2019-05-13T06:31:21.584Z,76.90
2019-05-13T06:33:51.306Z,76.50
2019-05-13T06:36:18.532Z,77.00
2019-05-13T06:38:46.572Z,76.20
2019-05-13T06:41:14.830Z,75.10
2019-05-13T06:43:42.983Z,75.90
2019-05-13T06:46:12.368Z,76.00
2019-05-13T06:48:41.510Z,74.50
2019-05-13T06:51:11.501Z,74.60
2019-05-13T06:53:38.473Z,75.10
2019-05-13T06:56:05.995Z,74.60
2019-05-13T06:58:33.811Z,74.20
2019-05-13T07:01:03.645Z,73.50
2019-05-13T07:03:32.282Z,74.60
2019-05-13T07:06:01.782Z,74.00
2019-05-13T07:08:31.434Z,74.10
2019-05-13T07:10:59.001Z,74.90
2019-05-13T07:13:26.718Z,73.50
2019-05-13T07:15:54.054Z,73.90
2019-05-13T07:18:21.962Z,74.50
2019-05-13T07:20:49.795Z,72.80
2019-05-13T07:23:17.586Z,72.60
2019-05-13T07:25:45.081Z,71.70
2019-05-13T07:28:12.885Z,72.50
2019-05-13T07:30:42.599Z,73.70
2019-05-13T07:33:12.566Z,71.50
2019-05-13T07:35:44.137Z,71.70
2019-05-13T07:38:11.683Z,70.80
2019-05-13T07:40:41.839Z,71.20
2019-05-13T07:43:12.060Z,71.00
2019-05-13T07:45:39.284Z,71.80
2019-05-13T07:48:19.423Z,73.20
2019-05-13T07:50:50.347Z,72.80
2019-05-13T07:53:05.988Z,70.40
2019-05-13T07:55:33.620Z,71.80
2019-05-13T07:58:02.088Z,72.20
2019-05-13T08:00:32.663Z,70.60
2019-05-13T08:03:01.632Z,70.40
2019-05-13T08:05:31.425Z,72.20
2019-05-13T08:07:58.911Z,70.60
2019-05-13T08:10:26.834Z,69.40
2019-05-13T08:12:54.184Z,69.60
2019-05-13T08:15:22.895Z,67.80
2019-05-13T08:17:52.511Z,67.60
2019-05-13T08:20:22.114Z,68.40
2019-05-13T08:22:51.856Z,69.00
2019-05-13T08:25:19.210Z,69.50
2019-05-13T08:27:46.641Z,67.80
2019-05-13T08:30:18.091Z,67.80
2019-05-13T08:32:45.104Z,68.90
2019-05-13T08:35:12.910Z,69.20
2019-05-13T08:37:41.393Z,67.30
2019-05-13T08:40:11.886Z,67.20
2019-05-13T08:42:40.879Z,68.40
2019-05-13T08:45:08.672Z,67.50
2019-05-13T08:47:36.037Z,67.50
2019-05-13T08:50:04.572Z,67.50
2019-05-13T08:52:32.095Z,67.80
2019-05-13T08:55:01.479Z,66.40
2019-05-13T08:57:31.423Z,64.00
2019-05-13T08:59:58.265Z,64.80
2019-05-13T09:02:27.260Z,66.90
2019-05-13T09:04:54.746Z,64.80
2019-05-13T09:07:24.392Z,64.70
2019-05-13T09:09:52.042Z,64.90
2019-05-13T09:12:29.661Z,65.40
2019-05-13T09:14:52.214Z,63.90
2019-05-13T09:17:21.217Z,64.20
2019-05-13T09:19:48.383Z,65.80
2019-05-13T09:22:16.034Z,64.60
2019-05-13T09:24:43.817Z,64.10
2019-05-13T09:27:12.167Z,62.70
2019-05-13T09:29:42.331Z,62.80
2019-05-13T09:32:11.918Z,59.90
2019-05-13T09:34:41.989Z,58.50
2019-05-13T09:37:08.614Z,61.90
2019-05-13T09:39:36.123Z,60.00
2019-05-13T09:42:03.721Z,61.50
2019-05-13T09:44:32.746Z,60.90
2019-05-13T09:47:02.646Z,60.40
2019-05-13T09:49:32.880Z,58.50
2019-05-13T09:52:01.691Z,61.50
2019-05-13T09:54:32.944Z,61.10
2019-05-13T09:57:01.430Z,57.00
2019-05-13T09:59:28.216Z,56.80
2019-05-13T10:01:55.714Z,56.40
2019-05-13T10:04:23.112Z,58.90
2019-05-13T10:06:50.525Z,54.40
2019-05-13T10:09:18.386Z,55.80
2019-05-13T10:11:45.708Z,55.30
2019-05-13T10:14:13.268Z,57.10
2019-05-13T10:16:42.546Z,55.30
2019-05-13T10:19:12.389Z,50.60
2019-05-13T10:21:41.397Z,52.00
2019-05-13T10:24:08.968Z,52.00
2019-05-13T10:26:37.001Z,52.90
2019-05-13T10:29:04.905Z,51.70
2019-05-13T10:31:32.293Z,48.60
2019-05-13T10:34:02.066Z,48.30
2019-05-13T10:36:29.066Z,51.40
2019-05-13T10:38:56.494Z,48.30
2019-05-13T10:41:24.166Z,49.90
2019-05-13T10:43:52.238Z,51.20
2019-05-13T10:46:22.071Z,46.40
2019-05-13T10:48:52.416Z,47.00
2019-05-13T10:51:22.116Z,46.50
2019-05-13T10:53:48.464Z,48.80
2019-05-13T10:56:16.252Z,46.20
2019-05-13T10:58:44.610Z,46.40
2019-05-13T11:01:12.124Z,47.10
2019-05-13T11:03:42.507Z,43.40
2019-05-13T11:06:11.635Z,44.80
2019-05-13T11:08:41.990Z,48.80
2019-05-13T11:11:08.413Z,43.20
2019-05-13T11:13:52.232Z,44.50
2019-05-13T11:16:05.526Z,47.10
2019-05-13T11:18:33.395Z,43.80
2019-05-13T11:21:01.956Z,46.70
2019-05-13T11:23:32.194Z,47.60
2019-05-13T11:26:02.814Z,40.20
2019-05-13T11:28:31.706Z,42.50
2019-05-13T11:30:59.887Z,41.50
2019-05-13T11:33:31.578Z,39.10
2019-05-13T11:35:59.268Z,39.40
2019-05-13T11:38:26.636Z,39.80
2019-05-13T11:40:54.450Z,39.20
2019-05-13T11:43:27.241Z,37.40
2019-05-13T11:45:51.790Z,38.40
2019-05-13T11:48:19.595Z,39.60
2019-05-13T11:50:50.462Z,39.70
2019-05-13T11:53:31.636Z,44.10
2019-05-13T11:55:46.332Z,39.90
2019-05-13T11:58:14.306Z,37.60
2019-05-13T12:00:53.097Z,40.20
2019-05-13T12:03:23.023Z,36.90
2019-05-13T12:05:53.417Z,39.70
2019-05-13T12:08:22.459Z,38.90
2019-05-13T12:10:48.230Z,37.90
2019-05-13T12:13:16.025Z,39.90
2019-05-13T12:15:49.393Z,36.30
2019-05-13T12:18:13.520Z,36.80
2019-05-13T12:20:42.712Z,37.00
2019-05-13T12:23:13.010Z,38.30
2019-05-13T12:25:42.903Z,38.60
2019-05-13T12:28:11.375Z,36.80
2019-05-13T12:30:39.283Z,40.40
2019-05-13T12:33:08.496Z,40.00
2019-05-13T12:35:36.261Z,36.90
2019-05-13T12:38:03.741Z,35.80
2019-05-13T12:40:33.674Z,36.00
2019-05-13T12:43:02.263Z,37.50
2019-05-13T12:45:29.970Z,39.30
2019-05-13T12:47:57.923Z,36.30
2019-05-13T12:50:26.110Z,36.40
2019-05-13T12:52:53.625Z,34.70
2019-05-13T12:55:21.806Z,32.50
2019-05-13T12:57:52.042Z,35.20
2019-05-13T13:00:23.697Z,36.60
2019-05-13T13:02:52.061Z,36.90
2019-05-13T13:05:23.756Z,33.60
2019-05-13T13:08:13.769Z,34.70
2019-05-13T13:10:19.100Z,33.60
2019-05-13T13:12:47.098Z,32.70
2019-05-13T13:15:35.810Z,33.60
2019-05-13T13:17:44.031Z,34.50
2019-05-13T13:20:15.157Z,31.30
2019-05-13T13:22:42.284Z,37.30
2019-05-13T13:25:13.206Z,33.50
2019-05-13T13:28:06.764Z,33.70
2019-05-13T13:30:11.087Z,34.60
2019-05-13T13:32:38.478Z,38.60
2019-05-13T13:35:06.567Z,33.90
2019-05-13T13:37:35.215Z,32.00
2019-05-13T13:40:04.652Z,30.10
2019-05-13T13:42:33.068Z,31.40
2019-05-13T13:45:05.321Z,32.90
2019-05-13T13:47:33.229Z,34.90
2019-05-13T13:49:59.266Z,39.10
2019-05-13T13:52:27.054Z,35.20
2019-05-13T13:55:02.945Z,30.80
2019-05-13T13:57:25.774Z,32.40
2019-05-13T14:00:19.924Z,31.90
2019-05-13T14:02:25.060Z,31.40
2019-05-13T14:04:54.357Z,34.70
2019-05-13T14:07:31.294Z,26.10
2019-05-13T14:09:51.529Z,28.70
2019-05-13T14:12:21.881Z,28.90
2019-05-13T14:14:51.904Z,33.50
2019-05-13T14:17:18.665Z,31.70
2019-05-13T14:19:46.164Z,30.80
2019-05-13T14:22:13.646Z,31.10
2019-05-13T14:24:42.539Z,28.20
2019-05-13T14:27:12.073Z,30.20
2019-05-13T14:29:46.001Z,31.60
2019-05-13T14:32:09.412Z,29.50
2019-05-13T14:34:37.036Z,30.50
2019-05-13T14:37:04.830Z,33.00
2019-05-13T14:39:36.083Z,29.40
2019-05-13T14:42:03.048Z,31.70
2019-05-13T14:44:32.462Z,31.60
2019-05-13T14:47:01.586Z,32.30
2019-05-13T14:49:31.666Z,33.50
2019-05-13T14:52:01.294Z,31.20
2019-05-13T14:54:29.275Z,28.30
2019-05-13T14:56:58.006Z,31.90
2019-05-13T14:59:25.516Z,28.90
2019-05-13T15:01:53.443Z,30.00
2019-05-13T15:04:22.192Z,32.40
2019-05-13T15:06:51.253Z,31.70
2019-05-13T15:09:18.880Z,29.90
2019-05-13T15:11:47.084Z,29.00
2019-05-13T15:14:14.688Z,30.30
2019-05-13T15:16:42.600Z,28.30
2019-05-13T15:19:12.004Z,31.30
2019-05-13T15:21:41.286Z,28.00
2019-05-13T15:24:08.867Z,29.10
2019-05-13T15:26:36.401Z,27.70
2019-05-13T15:29:05.063Z,29.60
2019-05-13T15:31:33.846Z,26.00
2019-05-13T15:34:02.494Z,27.30
2019-05-13T15:36:31.542Z,27.80
2019-05-13T15:39:01.480Z,28.70
2019-05-13T15:41:31.069Z,29.30
2019-05-13T15:43:58.481Z,27.70
2019-05-13T15:46:26.132Z,27.40
2019-05-13T15:48:53.650Z,28.60
2019-05-13T15:51:22.050Z,26.80
2019-05-13T15:53:52.497Z,29.10
2019-05-13T15:56:21.810Z,27.80
2019-05-13T15:58:52.606Z,25.80
2019-05-13T16:01:23.549Z,26.80
2019-05-13T16:03:52.529Z,28.00
2019-05-13T16:06:20.526Z,29.20
2019-05-13T16:08:47.934Z,24.60
2019-05-13T16:11:15.480Z,26.70
2019-05-13T16:13:43.236Z,27.60
2019-05-13T16:16:12.267Z,26.80
2019-05-13T16:18:41.954Z,26.70
2019-05-13T16:21:11.481Z,27.00
2019-05-13T16:23:38.636Z,27.00
2019-05-13T16:26:06.457Z,26.20
2019-05-13T16:28:34.109Z,25.20
2019-05-13T16:31:02.425Z,24.70
2019-05-13T16:33:31.354Z,22.90
2019-05-13T16:36:02.265Z,23.80
2019-05-13T16:38:29.061Z,25.80
2019-05-13T16:40:56.980Z,27.30
2019-05-13T16:43:24.913Z,24.20
2019-05-13T16:45:52.939Z,26.00
2019-05-13T16:48:21.548Z,26.40
2019-05-13T16:50:49.368Z,25.20
2019-05-13T16:53:16.725Z,25.20
2019-05-13T16:55:44.220Z,25.60
2019-05-13T16:58:12.559Z,26.00
2019-05-13T17:00:42.437Z,26.90
2019-05-13T17:03:11.485Z,26.40
2019-05-13T17:05:39.068Z,27.20
2019-05-13T17:08:06.769Z,26.80
2019-05-13T17:10:34.332Z,24.40
2019-05-13T17:13:02.948Z,24.00
2019-05-13T17:15:31.307Z,25.20
2019-05-13T17:18:09.300Z,25.20
2019-05-13T17:20:28.792Z,24.70
2019-05-13T17:22:56.234Z,25.80
2019-05-13T17:25:23.942Z,25.60
2019-05-13T17:27:51.590Z,23.80
2019-05-13T17:30:19.218Z,24.50
2019-05-13T17:32:47.106Z,25.40
2019-05-13T17:35:14.977Z,25.70
2019-05-13T17:37:42.479Z,25.50
2019-05-13T17:40:11.812Z,25.00
2019-05-13T17:42:41.484Z,25.50
2019-05-13T17:45:11.321Z,25.10
2019-05-13T17:47:41.609Z,26.70
2019-05-13T17:50:08.787Z,25.70
2019-05-13T17:52:36.297Z,25.90
2019-05-13T17:55:03.826Z,26.80
2019-05-13T17:57:32.031Z,27.20
2019-05-13T18:00:00.220Z,27.20
2019-05-13T18:02:28.338Z,27.10
2019-05-13T18:04:55.832Z,27.00
2019-05-13T18:07:23.281Z,27.20
2019-05-13T18:09:51.957Z,28.10
2019-05-13T18:12:22.286Z,27.10
2019-05-13T18:14:51.741Z,26.80
2019-05-13T18:17:18.947Z,28.10
2019-05-13T18:19:46.488Z,28.70
2019-05-13T18:22:13.843Z,29.40
2019-05-13T18:24:41.325Z,29.50
2019-05-13T18:27:08.880Z,30.70
2019-05-13T18:29:36.381Z,30.90
2019-05-13T18:32:05.131Z,30.90
2019-05-13T18:34:32.887Z,30.60
2019-05-13T18:37:02.489Z,30.90
2019-05-13T18:39:32.272Z,31.10
2019-05-13T18:41:59.843Z,29.00
2019-05-13T18:44:27.158Z,29.10
2019-05-13T18:46:55.095Z,30.10
2019-05-13T18:49:22.577Z,28.40
2019-05-13T18:51:50.357Z,28.10
2019-05-13T18:54:17.681Z,27.60
2019-05-13T18:56:46.631Z,29.40
2019-05-13T18:59:14.504Z,29.80
2019-05-13T19:01:42.142Z,29.80
2019-05-13T19:04:11.479Z,29.50
2019-05-13T19:06:39.183Z,29.60
2019-05-13T19:09:06.787Z,30.40
2019-05-13T19:11:34.620Z,31.30
2019-05-13T19:14:01.992Z,31.70
2019-05-13T19:16:31.911Z,31.30
2019-05-13T19:19:11.901Z,32.30
2019-05-13T19:21:31.061Z,32.40
2019-05-13T19:23:59.172Z,32.10
2019-05-13T19:26:27.467Z,32.70
2019-05-13T19:28:54.678Z,33.00
2019-05-13T19:31:22.419Z,33.00
2019-05-13T19:33:52.190Z,33.40
2019-05-13T19:36:21.098Z,33.20
2019-05-13T19:38:51.112Z,33.10
2019-05-13T19:41:19.159Z,33.30
2019-05-13T19:43:47.847Z,34.20
2019-05-13T19:46:15.424Z,34.10
2019-05-13T19:48:43.850Z,34.10
2019-05-13T19:51:11.492Z,34.30
2019-05-13T19:53:41.046Z,35.00
2019-05-13T19:56:08.734Z,35.70
2019-05-13T19:58:36.534Z,35.00
2019-05-13T20:01:05.098Z,34.70
2019-05-13T20:03:32.833Z,34.50
2019-05-13T20:06:02.238Z,34.80
2019-05-13T20:08:32.084Z,35.60
2019-05-13T20:11:01.880Z,35.90
2019-05-13T20:13:29.581Z,36.00
2019-05-13T20:15:57.102Z,36.60
2019-05-13T20:18:26.576Z,38.50
2019-05-13T20:20:54.355Z,39.60
2019-05-13T20:23:21.903Z,40.40
2019-05-13T20:25:52.210Z,40.50
2019-05-13T20:28:20.759Z,41.30
2019-05-13T20:30:48.478Z,41.40
2019-05-13T20:33:16.244Z,39.80
2019-05-13T20:35:43.599Z,40.90
2019-05-13T20:38:11.640Z,41.00
2019-05-13T20:40:41.347Z,41.30
2019-05-13T20:43:11.769Z,41.40
2019-05-13T20:45:38.973Z,40.60
2019-05-13T20:48:06.718Z,41.60
2019-05-13T20:50:34.111Z,41.10
2019-05-13T20:53:01.840Z,41.00
2019-05-13T20:55:29.394Z,40.30
2019-05-13T20:57:56.901Z,39.80
2019-05-13T21:00:24.818Z,41.90
2019-05-13T21:02:52.269Z,41.60
2019-05-13T21:05:21.720Z,39.60
2019-05-13T21:07:51.540Z,40.10
2019-05-13T21:10:20.949Z,39.80
2019-05-13T21:12:48.416Z,41.20
2019-05-13T21:15:15.989Z,45.60
2019-05-13T21:17:43.654Z,46.30
2019-05-13T21:20:20.731Z,46.80
2019-05-13T21:22:42.360Z,46.70
2019-05-13T21:25:10.164Z,45.70
2019-05-13T21:27:38.750Z,44.80
2019-05-13T21:30:06.557Z,43.10
2019-05-13T21:32:33.923Z,42.70
2019-05-13T21:35:01.791Z,43.30
2019-05-13T21:37:29.441Z,44.50
2019-05-13T21:39:57.163Z,44.80
2019-05-13T21:42:24.695Z,44.80
2019-05-13T21:44:52.171Z,45.30
2019-05-13T21:47:21.868Z,45.30
2019-05-13T21:49:51.570Z,43.80
2019-05-13T21:52:23.577Z,44.10
2019-05-13T21:54:51.475Z,44.90
2019-05-13T21:57:19.068Z,45.80
2019-05-13T21:59:46.805Z,50.70
2019-05-13T22:02:14.300Z,50.80
2019-05-13T22:04:41.910Z,49.30
2019-05-13T22:07:12.219Z,49.10
2019-05-13T22:09:42.290Z,48.00
2019-05-13T22:12:10.064Z,46.00
2019-05-13T22:14:37.684Z,46.00
2019-05-13T22:17:05.821Z,49.00
2019-05-13T22:19:33.950Z,47.50
2019-05-13T22:22:02.230Z,47.30
2019-05-13T22:24:31.258Z,47.30
2019-05-13T22:26:58.960Z,46.40
2019-05-13T22:29:26.763Z,44.60
2019-05-13T22:31:54.926Z,46.40
2019-05-13T22:34:24.106Z,48.40
2019-05-13T22:36:52.101Z,47.40
2019-05-13T22:39:21.899Z,47.30
2019-05-13T22:41:49.282Z,47.70
2019-05-13T22:44:18.554Z,47.80
2019-05-13T22:46:46.612Z,48.00
2019-05-13T22:49:14.440Z,51.20
2019-05-13T22:51:42.480Z,51.70
2019-05-13T22:54:11.875Z,51.70
2019-05-13T22:56:41.252Z,52.80
2019-05-13T22:59:09.510Z,52.60
2019-05-13T23:01:37.312Z,50.80
2019-05-13T23:04:04.875Z,50.60
2019-05-13T23:06:32.329Z,51.00
2019-05-13T23:09:01.808Z,51.50
2019-05-13T23:11:31.362Z,50.80
2019-05-13T23:14:07.319Z,48.60
2019-05-13T23:16:31.473Z,49.10
2019-05-13T23:18:59.456Z,48.60
2019-05-13T23:21:26.936Z,50.30
2019-05-13T23:23:54.777Z,51.00
2019-05-13T23:26:22.657Z,53.00
2019-05-13T23:28:52.043Z,54.00
2019-05-13T23:31:19.578Z,52.40
2019-05-13T23:33:46.957Z,51.70
2019-05-13T23:36:14.504Z,50.40
2019-05-13T23:38:42.112Z,50.50
2019-05-13T23:41:11.507Z,50.90
2019-05-13T23:43:39.020Z,49.60
2019-05-13T23:46:06.504Z,49.60
2019-05-13T23:48:34.585Z,49.50
2019-05-13T23:51:02.100Z,48.70
2019-05-13T23:53:31.504Z,46.60
2019-05-13T23:55:59.111Z,47.60
2019-05-13T23:58:26.826Z,48.10
